sensor_id;sensor_type;location;lat;lon;timestamp;temperature;humidity
20590;DHT22;10453;50.810;12.540;2023-02-02T00:04:03;2.50;99.90
20590;DHT22;10453;50.810;12.540;2023-02-02T00:08:21;2.60;99.90
20590;DHT22;10453;50.810;12.540;2023-02-02T00:12:38;2.70;99.90
20590;DHT22;10453;50.810;12.540;2023-02-02T00:16:56;2.60;99.90
20590;DHT22;10453;50.810;12.540;2023-02-02T00:21:13;2.70;99.90
20590;DHT22;10453;50.810;12.540;2023-02-02T00:25:31;2.70;99.90
20590;DHT22;10453;50.810;12.540;2023-02-02T00:29:48;2.70;99.90
20590;DHT22;10453;50.810;12.540;2023-02-02T00:34:11;2.60;99.90
20590;DHT22;10453;50.810;12.540;2023-02-02T00:38:29;2.60;99.90
20590;DHT22;10453;50.810;12.540;2023-02-02T00:42:46;2.70;99.90
20590;DHT22;10453;50.810;12.540;2023-02-02T00:47:06;2.80;99.90
20590;DHT22;10453;50.810;12.540;2023-02-02T00:51:23;2.70;99.90
20590;DHT22;10453;50.810;12.540;2023-02-02T00:55:40;2.70;99.90
20590;DHT22;10453;50.810;12.540;2023-02-02T00:59:57;2.70;99.90
20590;DHT22;10453;50.810;12.540;2023-02-02T01:04:14;2.80;99.90
20590;DHT22;10453;50.810;12.540;2023-02-02T01:08:31;3.00;99.90
20590;DHT22;10453;50.810;12.540;2023-02-02T01:12:48;2.90;99.90
20590;DHT22;10453;50.810;12.540;2023-02-02T01:17:05;3.00;99.90
20590;DHT22;10453;50.810;12.540;2023-02-02T01:21:23;3.10;99.90
20590;DHT22;10453;50.810;12.540;2023-02-02T01:25:40;3.00;99.90
20590;DHT22;10453;50.810;12.540;2023-02-02T01:29:57;3.00;99.90
20590;DHT22;10453;50.810;12.540;2023-02-02T01:34:14;3.00;99.90
20590;DHT22;10453;50.810;12.540;2023-02-02T01:38:31;2.90;99.90
20590;DHT22;10453;50.810;12.540;2023-02-02T01:42:49;2.90;99.90
20590;DHT22;10453;50.810;12.540;2023-02-02T01:47:06;2.90;99.90
20590;DHT22;10453;50.810;12.540;2023-02-02T01:51:29;2.90;99.90
20590;DHT22;10453;50.810;12.540;2023-02-02T01:55:48;3.00;99.90
20590;DHT22;10453;50.810;12.540;2023-02-02T02:00:07;3.00;99.90
20590;DHT22;10453;50.810;12.540;2023-02-02T02:04:26;3.00;99.90
20590;DHT22;10453;50.810;12.540;2023-02-02T02:08:53;3.00;99.90
20590;DHT22;10453;50.810;12.540;2023-02-02T02:13:11;3.00;99.90
20590;DHT22;10453;50.810;12.540;2023-02-02T02:18:01;3.00;99.90
20590;DHT22;10453;50.810;12.540;2023-02-02T02:22:20;3.00;99.90
20590;DHT22;10453;50.810;12.540;2023-02-02T02:36:02;3.10;99.90
20590;DHT22;10453;50.810;12.540;2023-02-02T02:40:46;3.00;99.90
20590;DHT22;10453;50.810;12.540;2023-02-02T02:45:06;3.10;99.90
20590;DHT22;10453;50.810;12.540;2023-02-02T02:49:23;2.90;99.90
20590;DHT22;10453;50.810;12.540;2023-02-02T02:53:40;3.00;99.90
20590;DHT22;10453;50.810;12.540;2023-02-02T02:58:08;2.90;99.90
20590;DHT22;10453;50.810;12.540;2023-02-02T03:02:47;3.00;99.90
20590;DHT22;10453;50.810;12.540;2023-02-02T03:07:21;3.00;99.90
20590;DHT22;10453;50.810;12.540;2023-02-02T03:11:40;3.00;99.90
20590;DHT22;10453;50.810;12.540;2023-02-02T03:15:57;3.00;99.90
20590;DHT22;10453;50.810;12.540;2023-02-02T03:20:15;3.10;99.90
20590;DHT22;10453;50.810;12.540;2023-02-02T03:24:32;3.10;99.90
20590;DHT22;10453;50.810;12.540;2023-02-02T03:28:50;3.20;99.90
20590;DHT22;10453;50.810;12.540;2023-02-02T03:33:08;3.20;99.90
20590;DHT22;10453;50.810;12.540;2023-02-02T03:37:25;3.20;99.90
20590;DHT22;10453;50.810;12.540;2023-02-02T03:41:42;3.10;99.90
20590;DHT22;10453;50.810;12.540;2023-02-02T03:46:01;3.20;99.90
20590;DHT22;10453;50.810;12.540;2023-02-02T03:50:20;3.20;99.90
20590;DHT22;10453;50.810;12.540;2023-02-02T03:54:40;3.20;99.90
20590;DHT22;10453;50.810;12.540;2023-02-02T03:58:57;3.20;99.90
20590;DHT22;10453;50.810;12.540;2023-02-02T04:03:15;3.10;99.90
20590;DHT22;10453;50.810;12.540;2023-02-02T04:07:32;3.10;99.90
20590;DHT22;10453;50.810;12.540;2023-02-02T04:11:49;3.10;99.90
20590;DHT22;10453;50.810;12.540;2023-02-02T04:16:06;3.10;99.90
20590;DHT22;10453;50.810;12.540;2023-02-02T04:20:23;3.00;99.90
20590;DHT22;10453;50.810;12.540;2023-02-02T04:24:40;3.00;99.90
20590;DHT22;10453;50.810;12.540;2023-02-02T04:28:57;3.00;99.90
20590;DHT22;10453;50.810;12.540;2023-02-02T04:33:15;3.10;99.90
20590;DHT22;10453;50.810;12.540;2023-02-02T04:37:32;3.10;99.90
20590;DHT22;10453;50.810;12.540;2023-02-02T04:41:49;3.20;99.90
20590;DHT22;10453;50.810;12.540;2023-02-02T04:46:06;3.20;99.90
20590;DHT22;10453;50.810;12.540;2023-02-02T04:50:23;3.20;99.90
20590;DHT22;10453;50.810;12.540;2023-02-02T04:54:40;3.30;99.90
20590;DHT22;10453;50.810;12.540;2023-02-02T04:58:58;3.20;99.90
20590;DHT22;10453;50.810;12.540;2023-02-02T05:03:15;3.20;99.90
20590;DHT22;10453;50.810;12.540;2023-02-02T05:07:32;3.20;99.90
20590;DHT22;10453;50.810;12.540;2023-02-02T05:11:49;3.20;99.90
20590;DHT22;10453;50.810;12.540;2023-02-02T05:16:07;3.10;99.90
20590;DHT22;10453;50.810;12.540;2023-02-02T05:20:24;3.10;99.90
20590;DHT22;10453;50.810;12.540;2023-02-02T05:24:41;3.10;99.90
20590;DHT22;10453;50.810;12.540;2023-02-02T05:28:58;3.10;99.90
20590;DHT22;10453;50.810;12.540;2023-02-02T05:33:16;3.10;99.90
20590;DHT22;10453;50.810;12.540;2023-02-02T05:37:35;3.10;99.90
20590;DHT22;10453;50.810;12.540;2023-02-02T05:41:52;3.10;99.90
20590;DHT22;10453;50.810;12.540;2023-02-02T05:46:10;3.20;99.90
20590;DHT22;10453;50.810;12.540;2023-02-02T05:50:27;3.30;99.90
20590;DHT22;10453;50.810;12.540;2023-02-02T05:54:44;3.40;99.90
20590;DHT22;10453;50.810;12.540;2023-02-02T05:59:01;3.30;99.90
20590;DHT22;10453;50.810;12.540;2023-02-02T06:03:23;3.40;99.90
20590;DHT22;10453;50.810;12.540;2023-02-02T06:07:40;3.40;99.90
20590;DHT22;10453;50.810;12.540;2023-02-02T06:11:57;3.30;99.90
20590;DHT22;10453;50.810;12.540;2023-02-02T06:16:14;3.30;99.90
20590;DHT22;10453;50.810;12.540;2023-02-02T06:20:32;3.30;99.90
20590;DHT22;10453;50.810;12.540;2023-02-02T06:24:49;3.10;99.90
20590;DHT22;10453;50.810;12.540;2023-02-02T06:29:06;3.10;99.90
20590;DHT22;10453;50.810;12.540;2023-02-02T06:33:23;3.10;99.90
20590;DHT22;10453;50.810;12.540;2023-02-02T06:37:40;3.00;99.90
20590;DHT22;10453;50.810;12.540;2023-02-02T06:41:58;2.90;99.90
20590;DHT22;10453;50.810;12.540;2023-02-02T06:46:24;3.00;99.90
20590;DHT22;10453;50.810;12.540;2023-02-02T06:50:41;3.00;99.90
20590;DHT22;10453;50.810;12.540;2023-02-02T06:54:59;3.00;99.90
20590;DHT22;10453;50.810;12.540;2023-02-02T06:59:16;3.00;99.90
20590;DHT22;10453;50.810;12.540;2023-02-02T07:03:33;3.00;99.90
20590;DHT22;10453;50.810;12.540;2023-02-02T07:07:51;3.10;99.90
20590;DHT22;10453;50.810;12.540;2023-02-02T07:12:08;3.20;99.90
20590;DHT22;10453;50.810;12.540;2023-02-02T07:16:25;3.20;99.90
20590;DHT22;10453;50.810;12.540;2023-02-02T07:20:42;3.30;99.90
20590;DHT22;10453;50.810;12.540;2023-02-02T07:24:59;3.40;99.90
20590;DHT22;10453;50.810;12.540;2023-02-02T07:29:16;3.40;99.90
20590;DHT22;10453;50.810;12.540;2023-02-02T07:33:33;3.40;99.90
20590;DHT22;10453;50.810;12.540;2023-02-02T07:37:54;3.60;99.90
20590;DHT22;10453;50.810;12.540;2023-02-02T07:42:12;3.60;99.90
20590;DHT22;10453;50.810;12.540;2023-02-02T07:46:30;3.50;99.90
20590;DHT22;10453;50.810;12.540;2023-02-02T07:50:47;3.60;99.90
20590;DHT22;10453;50.810;12.540;2023-02-02T07:55:04;3.60;99.90
20590;DHT22;10453;50.810;12.540;2023-02-02T07:59:41;3.70;99.90
20590;DHT22;10453;50.810;12.540;2023-02-02T08:03:59;3.80;99.90
20590;DHT22;10453;50.810;12.540;2023-02-02T08:08:16;3.80;99.90
20590;DHT22;10453;50.810;12.540;2023-02-02T08:12:33;4.00;99.90
20590;DHT22;10453;50.810;12.540;2023-02-02T08:16:50;4.00;99.90
20590;DHT22;10453;50.810;12.540;2023-02-02T08:21:07;4.10;99.90
20590;DHT22;10453;50.810;12.540;2023-02-02T08:25:25;4.10;99.90
20590;DHT22;10453;50.810;12.540;2023-02-02T08:29:43;4.10;99.90
20590;DHT22;10453;50.810;12.540;2023-02-02T08:34:00;4.20;99.90
20590;DHT22;10453;50.810;12.540;2023-02-02T08:38:17;4.20;99.90
20590;DHT22;10453;50.810;12.540;2023-02-02T08:42:34;4.20;99.90
20590;DHT22;10453;50.810;12.540;2023-02-02T08:46:51;4.20;99.90
20590;DHT22;10453;50.810;12.540;2023-02-02T08:51:10;4.30;99.90
20590;DHT22;10453;50.810;12.540;2023-02-02T08:55:28;4.40;99.90
20590;DHT22;10453;50.810;12.540;2023-02-02T08:59:45;4.40;99.90
20590;DHT22;10453;50.810;12.540;2023-02-02T09:04:06;4.40;99.90
20590;DHT22;10453;50.810;12.540;2023-02-02T09:08:24;4.50;99.90
20590;DHT22;10453;50.810;12.540;2023-02-02T09:12:41;4.50;99.90
20590;DHT22;10453;50.810;12.540;2023-02-02T09:16:58;4.60;99.90
20590;DHT22;10453;50.810;12.540;2023-02-02T09:21:17;4.70;99.90
20590;DHT22;10453;50.810;12.540;2023-02-02T09:25:34;4.70;99.90
20590;DHT22;10453;50.810;12.540;2023-02-02T09:29:51;4.80;99.90
20590;DHT22;10453;50.810;12.540;2023-02-02T09:34:11;5.00;99.90
20590;DHT22;10453;50.810;12.540;2023-02-02T09:38:28;5.10;99.90
20590;DHT22;10453;50.810;12.540;2023-02-02T09:52:17;5.30;99.90
20590;DHT22;10453;50.810;12.540;2023-02-02T09:56:40;5.20;99.90
20590;DHT22;10453;50.810;12.540;2023-02-02T10:01:15;5.50;99.90
20590;DHT22;10453;50.810;12.540;2023-02-02T10:06:01;5.40;99.90
20590;DHT22;10453;50.810;12.540;2023-02-02T10:10:25;5.60;99.90
20590;DHT22;10453;50.810;12.540;2023-02-02T10:14:56;5.70;99.90
20590;DHT22;10453;50.810;12.540;2023-02-02T10:19:16;5.70;99.90
20590;DHT22;10453;50.810;12.540;2023-02-02T10:23:41;5.70;99.90
20590;DHT22;10453;50.810;12.540;2023-02-02T10:28:15;5.60;99.90
20590;DHT22;10453;50.810;12.540;2023-02-02T10:32:48;5.60;99.90
20590;DHT22;10453;50.810;12.540;2023-02-02T10:37:31;5.70;99.90
20590;DHT22;10453;50.810;12.540;2023-02-02T10:42:03;5.90;99.90
20590;DHT22;10453;50.810;12.540;2023-02-02T10:46:58;5.90;99.90
20590;DHT22;10453;50.810;12.540;2023-02-02T10:51:23;5.60;99.90
20590;DHT22;10453;50.810;12.540;2023-02-02T10:55:48;5.60;99.90
20590;DHT22;10453;50.810;12.540;2023-02-02T11:00:20;5.70;99.90
20590;DHT22;10453;50.810;12.540;2023-02-02T11:04:39;5.80;99.90
20590;DHT22;10453;50.810;12.540;2023-02-02T11:09:21;5.60;99.90
20590;DHT22;10453;50.810;12.540;2023-02-02T11:13:51;5.60;99.90
20590;DHT22;10453;50.810;12.540;2023-02-02T11:22:43;5.40;99.90
20590;DHT22;10453;50.810;12.540;2023-02-02T11:27:08;5.50;99.90
20590;DHT22;10453;50.810;12.540;2023-02-02T11:31:36;5.40;99.90
20590;DHT22;10453;50.810;12.540;2023-02-02T11:36:17;5.30;99.90
20590;DHT22;10453;50.810;12.540;2023-02-02T11:40:43;5.20;99.90
20590;DHT22;10453;50.810;12.540;2023-02-02T11:45:01;5.10;99.90
20590;DHT22;10453;50.810;12.540;2023-02-02T11:49:21;5.40;99.90
20590;DHT22;10453;50.810;12.540;2023-02-02T11:53:43;5.10;99.90
20590;DHT22;10453;50.810;12.540;2023-02-02T11:58:18;5.10;99.90
20590;DHT22;10453;50.810;12.540;2023-02-02T12:02:35;5.20;99.90
20590;DHT22;10453;50.810;12.540;2023-02-02T12:06:52;5.00;99.90
20590;DHT22;10453;50.810;12.540;2023-02-02T12:11:20;4.80;99.90
20590;DHT22;10453;50.810;12.540;2023-02-02T12:15:51;4.80;99.90
20590;DHT22;10453;50.810;12.540;2023-02-02T12:29:36;4.70;99.90
20590;DHT22;10453;50.810;12.540;2023-02-02T12:39:01;4.90;99.90
20590;DHT22;10453;50.810;12.540;2023-02-02T12:43:39;4.90;99.90
20590;DHT22;10453;50.810;12.540;2023-02-02T12:48:17;4.90;99.90
20590;DHT22;10453;50.810;12.540;2023-02-02T12:53:06;4.80;99.90
20590;DHT22;10453;50.810;12.540;2023-02-02T13:02:29;5.00;99.90
20590;DHT22;10453;50.810;12.540;2023-02-02T13:11:34;5.00;99.90
20590;DHT22;10453;50.810;12.540;2023-02-02T13:15:57;5.00;99.90
20590;DHT22;10453;50.810;12.540;2023-02-02T13:20:25;4.80;99.90
20590;DHT22;10453;50.810;12.540;2023-02-02T13:24:46;4.90;99.90
20590;DHT22;10453;50.810;12.540;2023-02-02T13:33:29;5.00;99.90
20590;DHT22;10453;50.810;12.540;2023-02-02T13:37:55;4.80;99.90
20590;DHT22;10453;50.810;12.540;2023-02-02T13:42:35;4.70;99.90
20590;DHT22;10453;50.810;12.540;2023-02-02T13:47:01;4.70;99.90
20590;DHT22;10453;50.810;12.540;2023-02-02T13:56:29;4.90;99.90
20590;DHT22;10453;50.810;12.540;2023-02-02T14:00:58;4.90;99.90
20590;DHT22;10453;50.810;12.540;2023-02-02T14:05:29;5.00;99.90
20590;DHT22;10453;50.810;12.540;2023-02-02T14:09:47;4.90;99.90
20590;DHT22;10453;50.810;12.540;2023-02-02T14:37:49;4.50;99.90
20590;DHT22;10453;50.810;12.540;2023-02-02T14:47:02;4.50;99.90
20590;DHT22;10453;50.810;12.540;2023-02-02T14:51:22;4.60;99.90
20590;DHT22;10453;50.810;12.540;2023-02-02T14:55:51;4.60;99.90
20590;DHT22;10453;50.810;12.540;2023-02-02T15:00:23;4.60;99.90
20590;DHT22;10453;50.810;12.540;2023-02-02T15:04:42;4.70;99.90
20590;DHT22;10453;50.810;12.540;2023-02-02T15:13:36;4.60;99.90
20590;DHT22;10453;50.810;12.540;2023-02-02T15:18:01;4.50;99.90
20590;DHT22;10453;50.810;12.540;2023-02-02T15:23:50;4.40;99.90
20590;DHT22;10453;50.810;12.540;2023-02-02T15:27:36;4.30;99.90
20590;DHT22;10453;50.810;12.540;2023-02-02T15:32:16;4.30;99.90
20590;DHT22;10453;50.810;12.540;2023-02-02T15:36:37;4.20;99.90
20590;DHT22;10453;50.810;12.540;2023-02-02T15:40:55;4.20;99.90
20590;DHT22;10453;50.810;12.540;2023-02-02T15:45:31;4.10;99.90
20590;DHT22;10453;50.810;12.540;2023-02-02T15:49:51;4.00;99.90
20590;DHT22;10453;50.810;12.540;2023-02-02T15:54:21;4.00;99.90
20590;DHT22;10453;50.810;12.540;2023-02-02T15:58:39;4.00;99.90
20590;DHT22;10453;50.810;12.540;2023-02-02T16:07:27;3.90;99.90
20590;DHT22;10453;50.810;12.540;2023-02-02T16:11:46;3.90;99.90
20590;DHT22;10453;50.810;12.540;2023-02-02T16:16:20;3.90;99.90
20590;DHT22;10453;50.810;12.540;2023-02-02T16:20:38;3.90;99.90
20590;DHT22;10453;50.810;12.540;2023-02-02T16:25:00;3.80;99.90
20590;DHT22;10453;50.810;12.540;2023-02-02T16:29:18;3.80;99.90
20590;DHT22;10453;50.810;12.540;2023-02-02T16:33:43;3.80;99.90
20590;DHT22;10453;50.810;12.540;2023-02-02T16:43:06;3.60;99.90
20590;DHT22;10453;50.810;12.540;2023-02-02T16:47:33;3.60;99.90
20590;DHT22;10453;50.810;12.540;2023-02-02T16:52:17;3.50;99.90
20590;DHT22;10453;50.810;12.540;2023-02-02T16:56:50;3.60;99.90
20590;DHT22;10453;50.810;12.540;2023-02-02T17:01:09;3.50;99.90
20590;DHT22;10453;50.810;12.540;2023-02-02T17:05:44;3.50;99.90
20590;DHT22;10453;50.810;12.540;2023-02-02T17:14:35;3.50;99.90
20590;DHT22;10453;50.810;12.540;2023-02-02T17:18:52;3.50;99.90
20590;DHT22;10453;50.810;12.540;2023-02-02T17:23:16;3.50;99.90
20590;DHT22;10453;50.810;12.540;2023-02-02T17:27:34;3.50;99.90
20590;DHT22;10453;50.810;12.540;2023-02-02T17:31:51;3.50;99.90
20590;DHT22;10453;50.810;12.540;2023-02-02T17:36:11;3.50;99.90
20590;DHT22;10453;50.810;12.540;2023-02-02T17:40:29;3.40;99.90
20590;DHT22;10453;50.810;12.540;2023-02-02T17:44:46;3.40;99.90
20590;DHT22;10453;50.810;12.540;2023-02-02T17:49:03;3.40;99.90
20590;DHT22;10453;50.810;12.540;2023-02-02T17:53:21;3.30;99.90
20590;DHT22;10453;50.810;12.540;2023-02-02T17:57:38;3.30;99.90
20590;DHT22;10453;50.810;12.540;2023-02-02T18:01:55;3.30;99.90
20590;DHT22;10453;50.810;12.540;2023-02-02T18:06:13;3.30;99.90
20590;DHT22;10453;50.810;12.540;2023-02-02T18:10:30;3.30;99.90
20590;DHT22;10453;50.810;12.540;2023-02-02T18:14:48;3.30;99.90
20590;DHT22;10453;50.810;12.540;2023-02-02T18:19:05;3.10;99.90
20590;DHT22;10453;50.810;12.540;2023-02-02T18:23:22;3.10;99.90
20590;DHT22;10453;50.810;12.540;2023-02-02T18:27:40;3.00;99.90
20590;DHT22;10453;50.810;12.540;2023-02-02T18:31:58;3.10;99.90
20590;DHT22;10453;50.810;12.540;2023-02-02T18:36:17;3.10;99.90
20590;DHT22;10453;50.810;12.540;2023-02-02T18:40:36;3.10;99.90
20590;DHT22;10453;50.810;12.540;2023-02-02T18:44:54;3.10;99.90
20590;DHT22;10453;50.810;12.540;2023-02-02T18:49:11;3.20;99.90
20590;DHT22;10453;50.810;12.540;2023-02-02T18:53:28;3.20;99.90
20590;DHT22;10453;50.810;12.540;2023-02-02T18:57:45;3.10;99.90
20590;DHT22;10453;50.810;12.540;2023-02-02T19:02:02;2.90;99.90
20590;DHT22;10453;50.810;12.540;2023-02-02T19:06:20;2.90;99.90
20590;DHT22;10453;50.810;12.540;2023-02-02T19:11:04;2.90;99.90
20590;DHT22;10453;50.810;12.540;2023-02-02T19:15:24;2.90;99.90
20590;DHT22;10453;50.810;12.540;2023-02-02T19:19:42;2.80;99.90
20590;DHT22;10453;50.810;12.540;2023-02-02T19:24:00;2.90;99.90
20590;DHT22;10453;50.810;12.540;2023-02-02T19:28:28;2.90;99.90
20590;DHT22;10453;50.810;12.540;2023-02-02T19:32:46;2.90;99.90
20590;DHT22;10453;50.810;12.540;2023-02-02T19:37:21;2.90;99.90
20590;DHT22;10453;50.810;12.540;2023-02-02T19:41:39;2.80;99.90
20590;DHT22;10453;50.810;12.540;2023-02-02T19:45:59;2.80;99.90
20590;DHT22;10453;50.810;12.540;2023-02-02T19:50:21;2.80;99.90
20590;DHT22;10453;50.810;12.540;2023-02-02T19:54:41;2.70;99.90
20590;DHT22;10453;50.810;12.540;2023-02-02T19:59:00;2.60;99.90
20590;DHT22;10453;50.810;12.540;2023-02-02T20:03:35;2.60;99.90
20590;DHT22;10453;50.810;12.540;2023-02-02T20:12:34;2.50;99.90
20590;DHT22;10453;50.810;12.540;2023-02-02T20:16:58;2.60;99.90
20590;DHT22;10453;50.810;12.540;2023-02-02T20:21:28;2.60;99.90
20590;DHT22;10453;50.810;12.540;2023-02-02T20:25:48;2.50;99.90
20590;DHT22;10453;50.810;12.540;2023-02-02T20:30:24;2.50;99.90
20590;DHT22;10453;50.810;12.540;2023-02-02T20:34:43;2.50;99.90
20590;DHT22;10453;50.810;12.540;2023-02-02T20:39:23;2.50;99.90
20590;DHT22;10453;50.810;12.540;2023-02-02T20:43:38;2.60;99.90
20590;DHT22;10453;50.810;12.540;2023-02-02T20:47:55;2.70;99.90
20590;DHT22;10453;50.810;12.540;2023-02-02T20:52:16;2.80;99.90
20590;DHT22;10453;50.810;12.540;2023-02-02T20:56:40;2.80;99.90
20590;DHT22;10453;50.810;12.540;2023-02-02T21:00:57;2.90;99.90
20590;DHT22;10453;50.810;12.540;2023-02-02T21:05:16;2.90;99.90
20590;DHT22;10453;50.810;12.540;2023-02-02T21:09:33;2.90;99.90
20590;DHT22;10453;50.810;12.540;2023-02-02T21:13:50;2.90;99.90
20590;DHT22;10453;50.810;12.540;2023-02-02T21:18:10;3.00;99.90
20590;DHT22;10453;50.810;12.540;2023-02-02T21:22:28;2.90;99.90
20590;DHT22;10453;50.810;12.540;2023-02-02T21:26:45;3.00;99.90
20590;DHT22;10453;50.810;12.540;2023-02-02T21:31:07;2.80;99.90
20590;DHT22;10453;50.810;12.540;2023-02-02T21:35:25;2.80;99.90
20590;DHT22;10453;50.810;12.540;2023-02-02T21:39:43;2.80;99.90
20590;DHT22;10453;50.810;12.540;2023-02-02T21:44:12;2.80;99.90
20590;DHT22;10453;50.810;12.540;2023-02-02T21:48:34;2.80;99.90
20590;DHT22;10453;50.810;12.540;2023-02-02T21:52:57;2.80;99.90
20590;DHT22;10453;50.810;12.540;2023-02-02T21:57:35;2.80;99.90
20590;DHT22;10453;50.810;12.540;2023-02-02T22:01:53;2.80;99.90
20590;DHT22;10453;50.810;12.540;2023-02-02T22:06:27;2.80;99.90
20590;DHT22;10453;50.810;12.540;2023-02-02T22:10:46;2.90;99.90
20590;DHT22;10453;50.810;12.540;2023-02-02T22:15:15;2.90;99.90
20590;DHT22;10453;50.810;12.540;2023-02-02T22:19:37;2.90;99.90
20590;DHT22;10453;50.810;12.540;2023-02-02T22:23:54;2.80;99.90
20590;DHT22;10453;50.810;12.540;2023-02-02T22:28:36;2.80;99.90
20590;DHT22;10453;50.810;12.540;2023-02-02T22:32:55;2.70;99.90
20590;DHT22;10453;50.810;12.540;2023-02-02T22:37:12;2.70;99.90
20590;DHT22;10453;50.810;12.540;2023-02-02T22:41:29;2.60;99.90
20590;DHT22;10453;50.810;12.540;2023-02-02T22:45:47;2.50;99.90
20590;DHT22;10453;50.810;12.540;2023-02-02T22:50:05;2.50;99.90
20590;DHT22;10453;50.810;12.540;2023-02-02T22:54:22;2.40;99.90
20590;DHT22;10453;50.810;12.540;2023-02-02T22:58:39;2.30;99.90
20590;DHT22;10453;50.810;12.540;2023-02-02T23:02:57;2.30;99.90
20590;DHT22;10453;50.810;12.540;2023-02-02T23:07:14;2.20;99.90
20590;DHT22;10453;50.810;12.540;2023-02-02T23:11:31;2.10;99.90
20590;DHT22;10453;50.810;12.540;2023-02-02T23:15:48;2.10;99.90
20590;DHT22;10453;50.810;12.540;2023-02-02T23:20:09;2.00;99.90
20590;DHT22;10453;50.810;12.540;2023-02-02T23:24:26;2.00;99.90
20590;DHT22;10453;50.810;12.540;2023-02-02T23:28:43;1.90;99.90
20590;DHT22;10453;50.810;12.540;2023-02-02T23:33:00;1.90;99.90
20590;DHT22;10453;50.810;12.540;2023-02-02T23:37:17;1.90;99.90
20590;DHT22;10453;50.810;12.540;2023-02-02T23:41:34;1.90;99.90
20590;DHT22;10453;50.810;12.540;2023-02-02T23:45:52;1.80;99.90
20590;DHT22;10453;50.810;12.540;2023-02-02T23:50:10;1.80;99.90
20590;DHT22;10453;50.810;12.540;2023-02-02T23:54:28;1.80;99.90
20590;DHT22;10453;50.810;12.540;2023-02-02T23:58:45;1.80;99.90
